sensor_id;sensor_type;location;lat;lon;timestamp;pressure;altitude;pressure_sealevel;temperature;humidity
12676;BME280;63820;65.654;21.944;2023-06-19T00:00:54;101689.38;;;12.77;100.00
12676;BME280;63820;65.654;21.944;2023-06-19T00:03:39;101681.69;;;12.73;100.00
12676;BME280;63820;65.654;21.944;2023-06-19T00:06:23;101674.78;;;12.72;100.00
12676;BME280;63820;65.654;21.944;2023-06-19T00:09:07;101675.88;;;12.65;100.00
12676;BME280;63820;65.654;21.944;2023-06-19T00:11:52;101673.25;;;12.65;100.00
12676;BME280;63820;65.654;21.944;2023-06-19T00:14:36;101677.69;;;12.63;100.00
12676;BME280;63820;65.654;21.944;2023-06-19T00:17:20;101675.16;;;12.60;100.00
12676;BME280;63820;65.654;21.944;2023-06-19T00:20:05;101676.16;;;12.56;100.00
12676;BME280;63820;65.654;21.944;2023-06-19T00:22:50;101666.81;;;12.49;100.00
12676;BME280;63820;65.654;21.944;2023-06-19T00:25:35;101666.09;;;12.45;100.00
12676;BME280;63820;65.654;21.944;2023-06-19T00:28:20;101660.13;;;12.41;100.00
12676;BME280;63820;65.654;21.944;2023-06-19T00:31:05;101663.72;;;12.37;100.00
12676;BME280;63820;65.654;21.944;2023-06-19T00:33:50;101662.03;;;12.36;100.00
12676;BME280;63820;65.654;21.944;2023-06-19T00:36:34;101661.22;;;12.34;100.00
12676;BME280;63820;65.654;21.944;2023-06-19T00:39:24;101665.63;;;12.32;100.00
12676;BME280;63820;65.654;21.944;2023-06-19T00:42:09;101667.44;;;12.30;100.00
12676;BME280;63820;65.654;21.944;2023-06-19T00:44:53;101669.28;;;12.27;100.00
12676;BME280;63820;65.654;21.944;2023-06-19T00:47:37;101672.78;;;12.26;100.00
12676;BME280;63820;65.654;21.944;2023-06-19T00:50:22;101666.63;;;12.28;100.00
12676;BME280;63820;65.654;21.944;2023-06-19T00:53:07;101677.72;;;12.35;100.00
12676;BME280;63820;65.654;21.944;2023-06-19T00:55:53;101680.38;;;12.33;100.00
12676;BME280;63820;65.654;21.944;2023-06-19T00:58:38;101684.84;;;12.30;100.00
12676;BME280;63820;65.654;21.944;2023-06-19T01:01:23;101686.69;;;12.26;100.00
12676;BME280;63820;65.654;21.944;2023-06-19T01:04:07;101691.00;;;12.27;100.00
12676;BME280;63820;65.654;21.944;2023-06-19T01:06:57;101686.69;;;12.26;100.00
12676;BME280;63820;65.654;21.944;2023-06-19T01:09:52;101684.91;;;12.28;100.00
12676;BME280;63820;65.654;21.944;2023-06-19T01:12:40;101693.53;;;12.30;100.00
12676;BME280;63820;65.654;21.944;2023-06-19T01:15:28;101691.81;;;12.29;100.00
12676;BME280;63820;65.654;21.944;2023-06-19T01:18:13;101696.09;;;12.32;100.00
12676;BME280;63820;65.654;21.944;2023-06-19T01:21:17;101698.66;;;12.33;100.00
12676;BME280;63820;65.654;21.944;2023-06-19T01:24:02;101699.31;;;12.40;100.00
12676;BME280;63820;65.654;21.944;2023-06-19T01:26:46;101700.13;;;12.42;100.00
12676;BME280;63820;65.654;21.944;2023-06-19T01:29:31;101693.06;;;12.46;100.00
12676;BME280;63820;65.654;21.944;2023-06-19T01:35:39;101698.22;;;12.47;100.00
12676;BME280;63820;65.654;21.944;2023-06-19T01:38:25;101701.78;;;12.44;100.00
12676;BME280;63820;65.654;21.944;2023-06-19T01:41:11;101694.88;;;12.43;100.00
12676;BME280;63820;65.654;21.944;2023-06-19T01:43:56;101692.03;;;12.50;100.00
12676;BME280;63820;65.654;21.944;2023-06-19T01:46:41;101697.91;;;12.56;100.00
12676;BME280;63820;65.654;21.944;2023-06-19T01:49:25;101690.75;;;12.63;100.00
12676;BME280;63820;65.654;21.944;2023-06-19T01:52:10;101693.97;;;12.71;100.00
12676;BME280;63820;65.654;21.944;2023-06-19T01:54:53;101691.16;;;12.77;100.00
12676;BME280;63820;65.654;21.944;2023-06-19T01:57:37;101692.66;;;12.84;100.00
12676;BME280;63820;65.654;21.944;2023-06-19T02:00:21;101695.06;;;12.90;100.00
12676;BME280;63820;65.654;21.944;2023-06-19T02:03:06;101693.91;;;12.99;100.00
12676;BME280;63820;65.654;21.944;2023-06-19T02:05:50;101693.59;;;13.08;100.00
12676;BME280;63820;65.654;21.944;2023-06-19T02:08:34;101694.13;;;13.19;100.00
12676;BME280;63820;65.654;21.944;2023-06-19T02:11:18;101695.56;;;13.28;100.00
12676;BME280;63820;65.654;21.944;2023-06-19T02:14:02;101690.97;;;13.34;100.00
12676;BME280;63820;65.654;21.944;2023-06-19T02:16:46;101692.50;;;13.40;100.00
12676;BME280;63820;65.654;21.944;2023-06-19T02:19:30;101695.88;;;13.44;100.00
12676;BME280;63820;65.654;21.944;2023-06-19T02:22:14;101693.03;;;13.50;100.00
12676;BME280;63820;65.654;21.944;2023-06-19T02:24:59;101696.38;;;13.53;100.00
12676;BME280;63820;65.654;21.944;2023-06-19T02:27:42;101695.41;;;13.56;100.00
12676;BME280;63820;65.654;21.944;2023-06-19T02:30:27;101697.06;;;13.58;100.00
12676;BME280;63820;65.654;21.944;2023-06-19T02:33:11;101697.00;;;13.60;100.00
12676;BME280;63820;65.654;21.944;2023-06-19T02:35:57;101694.34;;;13.61;100.00
12676;BME280;63820;65.654;21.944;2023-06-19T02:38:42;101690.59;;;13.68;100.00
12676;BME280;63820;65.654;21.944;2023-06-19T02:41:26;101692.97;;;13.74;100.00
12676;BME280;63820;65.654;21.944;2023-06-19T02:44:12;101700.50;;;13.84;100.00
12676;BME280;63820;65.654;21.944;2023-06-19T02:46:56;101691.38;;;13.94;100.00
12676;BME280;63820;65.654;21.944;2023-06-19T02:49:40;101689.97;;;14.08;100.00
12676;BME280;63820;65.654;21.944;2023-06-19T02:52:24;101689.38;;;14.24;100.00
12676;BME280;63820;65.654;21.944;2023-06-19T02:55:08;101698.31;;;14.42;100.00
12676;BME280;63820;65.654;21.944;2023-06-19T02:57:52;101701.06;;;14.59;100.00
12676;BME280;63820;65.654;21.944;2023-06-19T03:00:37;101701.13;;;14.79;100.00
12676;BME280;63820;65.654;21.944;2023-06-19T03:03:21;101709.94;;;14.98;100.00
12676;BME280;63820;65.654;21.944;2023-06-19T03:06:07;101702.09;;;15.19;100.00
12676;BME280;63820;65.654;21.944;2023-06-19T03:08:51;101707.97;;;15.44;100.00
12676;BME280;63820;65.654;21.944;2023-06-19T03:11:35;101697.25;;;15.69;100.00
12676;BME280;63820;65.654;21.944;2023-06-19T03:14:20;101696.50;;;15.86;100.00
12676;BME280;63820;65.654;21.944;2023-06-19T03:17:04;101701.81;;;16.03;100.00
12676;BME280;63820;65.654;21.944;2023-06-19T03:19:49;101698.69;;;16.14;100.00
12676;BME280;63820;65.654;21.944;2023-06-19T03:22:33;101689.41;;;16.25;100.00
12676;BME280;63820;65.654;21.944;2023-06-19T03:25:17;101692.59;;;16.32;100.00
12676;BME280;63820;65.654;21.944;2023-06-19T03:28:03;101690.66;;;16.35;100.00
12676;BME280;63820;65.654;21.944;2023-06-19T03:30:48;101689.44;;;16.43;100.00
12676;BME280;63820;65.654;21.944;2023-06-19T03:33:32;101686.34;;;16.34;100.00
12676;BME280;63820;65.654;21.944;2023-06-19T03:36:17;101692.16;;;16.22;100.00
12676;BME280;63820;65.654;21.944;2023-06-19T03:39:00;101683.22;;;16.08;100.00
12676;BME280;63820;65.654;21.944;2023-06-19T03:41:44;101691.31;;;16.03;100.00
12676;BME280;63820;65.654;21.944;2023-06-19T03:44:28;101696.06;;;15.95;100.00
12676;BME280;63820;65.654;21.944;2023-06-19T03:47:12;101688.06;;;15.98;100.00
12676;BME280;63820;65.654;21.944;2023-06-19T03:49:56;101694.44;;;16.11;100.00
12676;BME280;63820;65.654;21.944;2023-06-19T03:52:40;101678.78;;;16.46;100.00
12676;BME280;63820;65.654;21.944;2023-06-19T03:55:24;101681.78;;;16.91;100.00
12676;BME280;63820;65.654;21.944;2023-06-19T03:58:08;101680.22;;;17.88;100.00
12676;BME280;63820;65.654;21.944;2023-06-19T04:00:52;101679.56;;;19.07;100.00
12676;BME280;63820;65.654;21.944;2023-06-19T04:03:36;101684.69;;;20.37;100.00
12676;BME280;63820;65.654;21.944;2023-06-19T04:06:20;101686.31;;;21.31;100.00
12676;BME280;63820;65.654;21.944;2023-06-19T04:09:04;101689.28;;;22.01;100.00
12676;BME280;63820;65.654;21.944;2023-06-19T04:11:49;101682.38;;;21.75;100.00
12676;BME280;63820;65.654;21.944;2023-06-19T04:14:33;101682.53;;;20.96;100.00
12676;BME280;63820;65.654;21.944;2023-06-19T04:17:17;101679.75;;;20.18;100.00
12676;BME280;63820;65.654;21.944;2023-06-19T04:20:02;101682.53;;;20.96;100.00
12676;BME280;63820;65.654;21.944;2023-06-19T04:22:54;101676.59;;;22.06;100.00
12676;BME280;63820;65.654;21.944;2023-06-19T04:25:39;101681.28;;;22.50;100.00
12676;BME280;63820;65.654;21.944;2023-06-19T04:28:22;101678.13;;;22.22;100.00
12676;BME280;63820;65.654;21.944;2023-06-19T04:31:07;101680.75;;;21.85;100.00
12676;BME280;63820;65.654;21.944;2023-06-19T04:33:51;101686.31;;;21.31;100.00
12676;BME280;63820;65.654;21.944;2023-06-19T04:36:35;101686.53;;;20.63;100.00
12676;BME280;63820;65.654;21.944;2023-06-19T04:39:19;101682.09;;;20.22;100.00
12676;BME280;63820;65.654;21.944;2023-06-19T04:42:05;101685.00;;;19.91;100.00
12676;BME280;63820;65.654;21.944;2023-06-19T04:44:49;101689.56;;;19.75;100.00
12676;BME280;63820;65.654;21.944;2023-06-19T04:47:33;101694.63;;;19.49;100.00
12676;BME280;63820;65.654;21.944;2023-06-19T04:50:18;101687.22;;;19.26;100.00
12676;BME280;63820;65.654;21.944;2023-06-19T04:53:02;101693.25;;;19.14;100.00
12676;BME280;63820;65.654;21.944;2023-06-19T04:55:46;101693.38;;;18.97;100.00
12676;BME280;63820;65.654;21.944;2023-06-19T04:58:31;101698.19;;;18.90;100.00
12676;BME280;63820;65.654;21.944;2023-06-19T05:01:16;101699.53;;;18.97;100.00
12676;BME280;63820;65.654;21.944;2023-06-19T05:04:00;101694.91;;;19.01;100.00
12676;BME280;63820;65.654;21.944;2023-06-19T05:06:44;101695.75;;;19.01;100.00
12676;BME280;63820;65.654;21.944;2023-06-19T05:09:29;101701.88;;;19.02;100.00
12676;BME280;63820;65.654;21.944;2023-06-19T05:12:12;101709.63;;;19.05;100.00
12676;BME280;63820;65.654;21.944;2023-06-19T05:14:56;101698.63;;;19.12;100.00
12676;BME280;63820;65.654;21.944;2023-06-19T05:17:40;101694.38;;;19.10;100.00
12676;BME280;63820;65.654;21.944;2023-06-19T05:20:24;101696.25;;;19.08;100.00
12676;BME280;63820;65.654;21.944;2023-06-19T05:23:08;101697.84;;;19.10;100.00
12676;BME280;63820;65.654;21.944;2023-06-19T05:25:53;101703.22;;;19.09;100.00
12676;BME280;63820;65.654;21.944;2023-06-19T05:28:37;101702.38;;;19.08;100.00
12676;BME280;63820;65.654;21.944;2023-06-19T05:31:22;101710.69;;;19.16;100.00
12676;BME280;63820;65.654;21.944;2023-06-19T05:34:06;101710.81;;;19.29;100.00
12676;BME280;63820;65.654;21.944;2023-06-19T05:36:50;101710.56;;;19.48;100.00
12676;BME280;63820;65.654;21.944;2023-06-19T05:39:34;101717.75;;;19.60;100.00
12676;BME280;63820;65.654;21.944;2023-06-19T05:42:18;101714.91;;;19.77;100.00
12676;BME280;63820;65.654;21.944;2023-06-19T05:45:03;101715.94;;;19.89;100.00
12676;BME280;63820;65.654;21.944;2023-06-19T05:47:47;101718.56;;;20.03;100.00
12676;BME280;63820;65.654;21.944;2023-06-19T05:50:32;101717.59;;;20.18;100.00
12676;BME280;63820;65.654;21.944;2023-06-19T05:53:16;101709.38;;;20.23;100.00
12676;BME280;63820;65.654;21.944;2023-06-19T05:55:59;101714.19;;;20.31;100.00
12676;BME280;63820;65.654;21.944;2023-06-19T05:58:44;101714.38;;;20.42;100.00
12676;BME280;63820;65.654;21.944;2023-06-19T06:01:31;101710.78;;;20.43;100.00
12676;BME280;63820;65.654;21.944;2023-06-19T06:04:16;101718.72;;;20.43;100.00
12676;BME280;63820;65.654;21.944;2023-06-19T06:07:00;101713.22;;;20.32;100.00
12676;BME280;63820;65.654;21.944;2023-06-19T06:09:44;101715.13;;;20.30;100.00
12676;BME280;63820;65.654;21.944;2023-06-19T06:12:29;101716.34;;;20.24;100.00
12676;BME280;63820;65.654;21.944;2023-06-19T06:15:14;101719.69;;;20.13;100.00
12676;BME280;63820;65.654;21.944;2023-06-19T06:17:58;101723.28;;;20.12;100.00
12676;BME280;63820;65.654;21.944;2023-06-19T06:20:42;101723.66;;;20.06;100.00
12676;BME280;63820;65.654;21.944;2023-06-19T06:23:26;101721.97;;;20.05;100.00
12676;BME280;63820;65.654;21.944;2023-06-19T06:26:11;101723.84;;;20.17;100.00
12676;BME280;63820;65.654;21.944;2023-06-19T06:28:55;101723.47;;;20.09;100.00
12676;BME280;63820;65.654;21.944;2023-06-19T06:31:39;101733.63;;;20.30;100.00
12676;BME280;63820;65.654;21.944;2023-06-19T06:34:25;101727.09;;;20.35;100.00
12676;BME280;63820;65.654;21.944;2023-06-19T06:37:09;101731.53;;;20.49;100.00
12676;BME280;63820;65.654;21.944;2023-06-19T06:39:53;101735.22;;;20.73;100.00
12676;BME280;63820;65.654;21.944;2023-06-19T06:42:37;101732.53;;;21.00;100.00
12676;BME280;63820;65.654;21.944;2023-06-19T06:45:22;101741.25;;;21.15;100.00
12676;BME280;63820;65.654;21.944;2023-06-19T06:48:06;101736.94;;;21.27;100.00
12676;BME280;63820;65.654;21.944;2023-06-19T06:50:51;101735.81;;;21.69;100.00
12676;BME280;63820;65.654;21.944;2023-06-19T06:53:43;101729.50;;;21.95;100.00
12676;BME280;63820;65.654;21.944;2023-06-19T06:56:27;101735.44;;;22.48;100.00
12676;BME280;63820;65.654;21.944;2023-06-19T06:59:11;101736.00;;;23.34;100.00
12676;BME280;63820;65.654;21.944;2023-06-19T07:01:56;101739.41;;;23.47;97.95
12676;BME280;63820;65.654;21.944;2023-06-19T07:04:40;101737.28;;;23.64;97.12
12676;BME280;63820;65.654;21.944;2023-06-19T07:07:24;101734.94;;;23.37;100.00
12676;BME280;63820;65.654;21.944;2023-06-19T07:10:09;101730.69;;;23.34;99.86
12676;BME280;63820;65.654;21.944;2023-06-19T07:12:53;101730.09;;;23.31;100.00
12676;BME280;63820;65.654;21.944;2023-06-19T07:15:37;101733.59;;;23.31;99.76
12676;BME280;63820;65.654;21.944;2023-06-19T07:18:21;101734.56;;;23.30;99.38
12676;BME280;63820;65.654;21.944;2023-06-19T07:21:10;101730.56;;;23.36;100.00
12676;BME280;63820;65.654;21.944;2023-06-19T07:23:56;101721.28;;;23.41;98.04
12676;BME280;63820;65.654;21.944;2023-06-19T07:26:41;101726.63;;;23.53;96.96
12676;BME280;63820;65.654;21.944;2023-06-19T07:29:25;101723.28;;;23.62;97.96
12676;BME280;63820;65.654;21.944;2023-06-19T07:32:11;101726.75;;;23.51;98.67
12676;BME280;63820;65.654;21.944;2023-06-19T07:34:55;101717.97;;;23.84;92.34
12676;BME280;63820;65.654;21.944;2023-06-19T07:37:39;101725.69;;;23.87;94.08
12676;BME280;63820;65.654;21.944;2023-06-19T07:40:23;101730.59;;;24.14;90.97
12676;BME280;63820;65.654;21.944;2023-06-19T07:43:07;101725.53;;;24.11;91.11
12676;BME280;63820;65.654;21.944;2023-06-19T07:45:51;101730.00;;;24.33;91.81
12676;BME280;63820;65.654;21.944;2023-06-19T07:48:35;101723.66;;;24.88;89.11
12676;BME280;63820;65.654;21.944;2023-06-19T07:51:20;101725.91;;;25.76;79.47
12676;BME280;63820;65.654;21.944;2023-06-19T07:54:04;101725.06;;;25.55;82.71
12676;BME280;63820;65.654;21.944;2023-06-19T07:56:48;101723.84;;;25.89;80.17
12676;BME280;63820;65.654;21.944;2023-06-19T07:59:32;101715.44;;;26.03;79.90
12676;BME280;63820;65.654;21.944;2023-06-19T08:02:17;101715.47;;;26.23;81.95
12676;BME280;63820;65.654;21.944;2023-06-19T08:05:01;101711.47;;;28.17;73.26
12676;BME280;63820;65.654;21.944;2023-06-19T08:07:47;101727.56;;;30.25;63.04
12676;BME280;63820;65.654;21.944;2023-06-19T08:10:32;101728.06;;;29.79;59.05
12676;BME280;63820;65.654;21.944;2023-06-19T08:13:16;101724.47;;;31.03;57.81
12676;BME280;63820;65.654;21.944;2023-06-19T08:16:00;101729.94;;;32.60;54.14
12676;BME280;63820;65.654;21.944;2023-06-19T08:18:45;101735.28;;;34.02;49.56
12676;BME280;63820;65.654;21.944;2023-06-19T08:21:29;101724.09;;;34.62;46.50
12676;BME280;63820;65.654;21.944;2023-06-19T08:24:13;101726.41;;;35.43;45.04
12676;BME280;63820;65.654;21.944;2023-06-19T08:26:57;101725.63;;;35.21;43.30
12676;BME280;63820;65.654;21.944;2023-06-19T08:29:41;101724.56;;;35.15;44.18
12676;BME280;63820;65.654;21.944;2023-06-19T08:32:26;101721.72;;;35.64;44.35
12676;BME280;63820;65.654;21.944;2023-06-19T08:35:11;101716.00;;;35.12;42.92
12676;BME280;63820;65.654;21.944;2023-06-19T08:37:55;101722.63;;;36.26;42.38
12676;BME280;63820;65.654;21.944;2023-06-19T08:40:41;101713.00;;;36.17;42.19
12676;BME280;63820;65.654;21.944;2023-06-19T08:43:26;101714.56;;;37.25;38.93
12676;BME280;63820;65.654;21.944;2023-06-19T08:46:13;101720.59;;;37.40;37.73
12676;BME280;63820;65.654;21.944;2023-06-19T08:48:58;101718.31;;;37.37;37.70
12676;BME280;63820;65.654;21.944;2023-06-19T08:51:44;101711.03;;;36.98;38.73
12676;BME280;63820;65.654;21.944;2023-06-19T08:54:29;101721.44;;;37.27;38.06
12676;BME280;63820;65.654;21.944;2023-06-19T08:57:13;101716.91;;;37.66;36.86
12676;BME280;63820;65.654;21.944;2023-06-19T08:59:57;101721.03;;;37.30;38.86
12676;BME280;63820;65.654;21.944;2023-06-19T09:02:45;101722.06;;;37.29;38.13
12676;BME280;63820;65.654;21.944;2023-06-19T09:05:30;101718.13;;;37.90;37.37
12676;BME280;63820;65.654;21.944;2023-06-19T09:08:15;101713.72;;;38.34;36.53
12676;BME280;63820;65.654;21.944;2023-06-19T09:11:00;101710.78;;;38.60;34.93
12676;BME280;63820;65.654;21.944;2023-06-19T09:13:45;101706.03;;;36.82;36.43
12676;BME280;63820;65.654;21.944;2023-06-19T09:16:41;101713.63;;;38.09;36.41
12676;BME280;63820;65.654;21.944;2023-06-19T09:19:25;101705.06;;;38.93;32.82
12676;BME280;63820;65.654;21.944;2023-06-19T09:22:10;101706.28;;;37.64;34.91
12676;BME280;63820;65.654;21.944;2023-06-19T09:25:00;101704.69;;;39.33;31.88
12676;BME280;63820;65.654;21.944;2023-06-19T09:27:44;101705.53;;;39.33;30.88
12676;BME280;63820;65.654;21.944;2023-06-19T09:30:28;101704.44;;;40.49;29.87
12676;BME280;63820;65.654;21.944;2023-06-19T09:33:13;101706.44;;;39.64;29.67
12676;BME280;63820;65.654;21.944;2023-06-19T09:35:58;101710.19;;;39.51;27.94
12676;BME280;63820;65.654;21.944;2023-06-19T09:38:43;101705.53;;;39.33;29.24
12676;BME280;63820;65.654;21.944;2023-06-19T09:41:29;101711.13;;;39.38;27.82
12676;BME280;63820;65.654;21.944;2023-06-19T09:44:14;101707.63;;;38.63;29.57
12676;BME280;63820;65.654;21.944;2023-06-19T09:47:04;101708.06;;;38.60;29.20
12676;BME280;63820;65.654;21.944;2023-06-19T09:49:57;101711.50;;;39.60;30.06
12676;BME280;63820;65.654;21.944;2023-06-19T09:52:43;101707.56;;;39.38;28.62
12676;BME280;63820;65.654;21.944;2023-06-19T09:55:28;101705.47;;;37.57;28.42
12676;BME280;63820;65.654;21.944;2023-06-19T09:58:15;101695.69;;;38.89;27.75
12676;BME280;63820;65.654;21.944;2023-06-19T10:01:01;101702.19;;;39.13;27.45
12676;BME280;63820;65.654;21.944;2023-06-19T10:03:48;101701.13;;;39.32;28.14
12676;BME280;63820;65.654;21.944;2023-06-19T10:06:32;101690.47;;;38.87;28.71
12676;BME280;63820;65.654;21.944;2023-06-19T10:09:17;101694.09;;;40.51;30.29
12676;BME280;63820;65.654;21.944;2023-06-19T10:12:12;101692.19;;;39.62;27.61
12676;BME280;63820;65.654;21.944;2023-06-19T10:14:56;101687.44;;;39.39;28.33
12676;BME280;63820;65.654;21.944;2023-06-19T10:17:46;101695.16;;;40.62;26.53
12676;BME280;63820;65.654;21.944;2023-06-19T10:20:35;101694.50;;;40.78;26.48
12676;BME280;63820;65.654;21.944;2023-06-19T10:23:24;101700.00;;;38.15;28.27
12676;BME280;63820;65.654;21.944;2023-06-19T10:26:15;101695.53;;;38.27;28.63
12676;BME280;63820;65.654;21.944;2023-06-19T10:29:00;101690.63;;;38.68;27.48
12676;BME280;63820;65.654;21.944;2023-06-19T10:31:44;101683.91;;;38.70;27.65
12676;BME280;63820;65.654;21.944;2023-06-19T10:34:35;101682.72;;;38.84;29.12
12676;BME280;63820;65.654;21.944;2023-06-19T10:37:32;101687.41;;;37.83;28.08
12676;BME280;63820;65.654;21.944;2023-06-19T10:40:17;101682.94;;;39.08;29.61
12676;BME280;63820;65.654;21.944;2023-06-19T10:43:01;101686.75;;;40.51;26.86
12676;BME280;63820;65.654;21.944;2023-06-19T10:45:46;101682.50;;;40.79;28.59
12676;BME280;63820;65.654;21.944;2023-06-19T10:48:30;101678.56;;;39.43;27.24
12676;BME280;63820;65.654;21.944;2023-06-19T10:51:18;101669.91;;;38.67;29.57
12676;BME280;63820;65.654;21.944;2023-06-19T10:54:03;101671.81;;;37.58;30.08
12676;BME280;63820;65.654;21.944;2023-06-19T10:56:47;101669.22;;;37.12;30.35
12676;BME280;63820;65.654;21.944;2023-06-19T10:59:33;101657.97;;;36.69;32.63
12676;BME280;63820;65.654;21.944;2023-06-19T11:02:18;101665.72;;;36.85;31.21
12676;BME280;63820;65.654;21.944;2023-06-19T11:05:02;101664.75;;;37.95;30.68
12676;BME280;63820;65.654;21.944;2023-06-19T11:07:54;101661.31;;;36.91;29.69
12676;BME280;63820;65.654;21.944;2023-06-19T11:10:38;101659.94;;;35.33;32.91
12676;BME280;63820;65.654;21.944;2023-06-19T11:13:22;101655.91;;;34.24;34.17
12676;BME280;63820;65.654;21.944;2023-06-19T11:16:06;101653.13;;;34.39;32.00
12676;BME280;63820;65.654;21.944;2023-06-19T11:18:56;101650.53;;;34.73;34.15
12676;BME280;63820;65.654;21.944;2023-06-19T11:21:48;101650.75;;;34.08;34.59
12676;BME280;63820;65.654;21.944;2023-06-19T11:24:32;101638.47;;;33.10;35.56
12676;BME280;63820;65.654;21.944;2023-06-19T11:27:19;101630.25;;;32.06;37.56
12676;BME280;63820;65.654;21.944;2023-06-19T11:30:08;101630.53;;;30.37;39.57
12676;BME280;63820;65.654;21.944;2023-06-19T11:32:53;101625.34;;;30.51;39.84
12676;BME280;63820;65.654;21.944;2023-06-19T11:35:37;101629.53;;;30.30;42.17
12676;BME280;63820;65.654;21.944;2023-06-19T11:38:26;101628.53;;;30.55;40.59
12676;BME280;63820;65.654;21.944;2023-06-19T11:41:11;101626.69;;;30.31;41.16
12676;BME280;63820;65.654;21.944;2023-06-19T11:44:07;101633.06;;;29.29;41.44
12676;BME280;63820;65.654;21.944;2023-06-19T11:46:58;101628.22;;;28.99;44.10
12676;BME280;63820;65.654;21.944;2023-06-19T11:49:50;101626.03;;;29.63;43.15
12676;BME280;63820;65.654;21.944;2023-06-19T11:52:34;101615.09;;;30.47;40.82
12676;BME280;63820;65.654;21.944;2023-06-19T11:55:19;101621.66;;;30.61;39.64
12676;BME280;63820;65.654;21.944;2023-06-19T11:58:03;101618.28;;;30.50;39.62
12676;BME280;63820;65.654;21.944;2023-06-19T12:00:48;101623.31;;;29.28;40.46
12676;BME280;63820;65.654;21.944;2023-06-19T12:03:32;101619.50;;;28.36;41.91
12676;BME280;63820;65.654;21.944;2023-06-19T12:06:17;101614.97;;;28.36;42.59
12676;BME280;63820;65.654;21.944;2023-06-19T12:09:04;101622.94;;;28.28;41.58
12676;BME280;63820;65.654;21.944;2023-06-19T12:11:49;101615.84;;;28.62;40.52
12676;BME280;63820;65.654;21.944;2023-06-19T12:14:33;101625.78;;;28.88;39.52
12676;BME280;63820;65.654;21.944;2023-06-19T12:17:17;101621.41;;;28.25;40.45
12676;BME280;63820;65.654;21.944;2023-06-19T12:20:02;101612.16;;;27.47;41.77
12676;BME280;63820;65.654;21.944;2023-06-19T12:22:49;101619.63;;;27.98;41.32
12676;BME280;63820;65.654;21.944;2023-06-19T12:25:33;101624.78;;;27.55;42.63
12676;BME280;63820;65.654;21.944;2023-06-19T12:28:17;101623.34;;;27.88;42.08
12676;BME280;63820;65.654;21.944;2023-06-19T12:31:02;101624.63;;;27.66;42.78
12676;BME280;63820;65.654;21.944;2023-06-19T12:33:47;101622.69;;;27.49;42.18
12676;BME280;63820;65.654;21.944;2023-06-19T12:36:32;101615.91;;;27.27;43.29
12676;BME280;63820;65.654;21.944;2023-06-19T12:39:16;101614.63;;;27.58;43.06
12676;BME280;63820;65.654;21.944;2023-06-19T12:42:00;101614.03;;;28.45;41.20
12676;BME280;63820;65.654;21.944;2023-06-19T12:44:44;101616.59;;;28.73;40.26
12676;BME280;63820;65.654;21.944;2023-06-19T12:47:29;101628.59;;;29.12;39.29
12676;BME280;63820;65.654;21.944;2023-06-19T12:50:13;101621.00;;;29.34;38.90
12676;BME280;63820;65.654;21.944;2023-06-19T12:52:58;101611.72;;;29.54;38.96
12676;BME280;63820;65.654;21.944;2023-06-19T12:55:42;101606.25;;;29.38;39.50
12676;BME280;63820;65.654;21.944;2023-06-19T12:58:27;101616.34;;;29.02;39.53
12676;BME280;63820;65.654;21.944;2023-06-19T13:01:11;101604.66;;;29.11;39.96
12676;BME280;63820;65.654;21.944;2023-06-19T13:03:55;101616.19;;;29.79;40.66
12676;BME280;63820;65.654;21.944;2023-06-19T13:06:39;101599.16;;;30.05;38.63
12676;BME280;63820;65.654;21.944;2023-06-19T13:09:24;101600.47;;;29.50;40.27
12676;BME280;63820;65.654;21.944;2023-06-19T13:12:08;101596.47;;;29.20;40.07
12676;BME280;63820;65.654;21.944;2023-06-19T13:14:53;101598.47;;;29.18;39.58
12676;BME280;63820;65.654;21.944;2023-06-19T13:17:36;101602.81;;;29.11;40.78
12676;BME280;63820;65.654;21.944;2023-06-19T13:20:21;101599.47;;;29.17;40.94
12676;BME280;63820;65.654;21.944;2023-06-19T13:23:05;101612.03;;;28.83;40.08
12676;BME280;63820;65.654;21.944;2023-06-19T13:25:50;101601.19;;;28.49;42.11
12676;BME280;63820;65.654;21.944;2023-06-19T13:28:35;101603.91;;;27.68;41.89
12676;BME280;63820;65.654;21.944;2023-06-19T13:31:19;101596.88;;;27.67;44.15
12676;BME280;63820;65.654;21.944;2023-06-19T13:34:03;101597.84;;;27.93;42.61
12676;BME280;63820;65.654;21.944;2023-06-19T13:36:48;101594.63;;;28.08;42.85
12676;BME280;63820;65.654;21.944;2023-06-19T13:39:32;101593.94;;;28.06;43.99
12676;BME280;63820;65.654;21.944;2023-06-19T13:42:16;101587.91;;;28.04;42.76
12676;BME280;63820;65.654;21.944;2023-06-19T13:45:00;101586.25;;;28.11;42.27
12676;BME280;63820;65.654;21.944;2023-06-19T13:47:44;101579.31;;;27.82;43.78
12676;BME280;63820;65.654;21.944;2023-06-19T13:50:28;101577.19;;;28.04;44.41
12676;BME280;63820;65.654;21.944;2023-06-19T13:53:12;101577.63;;;28.17;43.30
12676;BME280;63820;65.654;21.944;2023-06-19T13:55:56;101570.19;;;28.11;44.16
12676;BME280;63820;65.654;21.944;2023-06-19T13:58:41;101575.28;;;27.96;42.10
12676;BME280;63820;65.654;21.944;2023-06-19T14:01:25;101568.03;;;27.61;43.18
12676;BME280;63820;65.654;21.944;2023-06-19T14:04:09;101558.50;;;27.49;44.13
12676;BME280;63820;65.654;21.944;2023-06-19T14:06:54;101563.09;;;27.66;45.33
12676;BME280;63820;65.654;21.944;2023-06-19T14:09:39;101550.34;;;27.50;43.43